Time;durP1;ratioP1;P1;durP2;ratioP2;P2;SDS_P1;SDS_P2;PMS_P1;PMS_P2;Temp;Humidity;BMP_temperature;BMP_pressure;BME280_temperature;BME280_humidity;BME280_pressure;Samples;Min_cycle;Max_cycle;Signal;HPM_P1;HPM_P2
2022/07/06 00:01:58;;;;;;;8.73;3.37;;;;;;;;;;5006683;28;20182;-74
2022/07/06 00:04:23;;;;;;;5.07;3.33;;;20.60;1.00;;;;;;5009529;28;20513;-74
2022/07/06 00:06:49;;;;;;;6.47;3.70;;;20.50;1.00;;;;;;5007557;28;20214;-74
2022/07/06 00:09:15;;;;;;;11.20;3.70;;;20.50;1.00;;;;;;5007469;28;20205;-74
2022/07/06 00:11:40;;;;;;;6.33;3.50;;;20.50;1.00;;;;;;5012286;28;20182;-74
2022/07/06 00:14:06;;;;;;;5.63;3.70;;;20.50;1.00;;;;;;4992131;28;20193;-73
2022/07/06 00:16:32;;;;;;;8.50;3.70;;;20.40;1.00;;;;;;5008920;28;20477;-73
2022/07/06 00:18:57;;;;;;;5.20;4.07;;;20.50;1.00;;;;;;4994260;28;20311;-73
2022/07/06 00:21:23;;;;;;;4.80;4.10;;;20.30;1.00;;;;;;5008034;28;20715;-73
2022/07/06 00:23:51;;;;;;;6.70;3.70;;;20.30;1.00;;;;;;5009166;28;20178;-74
2022/07/06 00:26:17;;;;;;;7.10;4.03;;;20.40;1.00;;;;;;5009546;28;20194;-73
2022/07/06 00:28:43;;;;;;;6.13;4.40;;;;;;;;;;5009185;28;20974;-74
2022/07/06 00:31:09;;;;;;;5.20;3.87;;;20.20;1.00;;;;;;5003714;28;20416;-73
2022/07/06 00:33:34;;;;;;;7.47;4.53;;;20.20;1.00;;;;;;5014811;28;20178;-75
2022/07/06 00:36:00;;;;;;;6.23;4.33;;;20.20;1.00;;;;;;5009707;28;20216;-73
2022/07/06 00:38:25;;;;;;;7.60;4.53;;;20.10;1.00;;;;;;4998968;28;20862;-74
2022/07/06 00:40:51;;;;;;;8.40;5.10;;;;;;;;;;5009997;28;20274;-73
2022/07/06 00:43:17;;;;;;;11.83;4.90;;;21.00;1.00;;;;;;5025339;28;20177;-73
2022/07/06 00:45:43;;;;;;;6.97;4.90;;;20.00;1.00;;;;;;5010769;28;20275;-73
2022/07/06 00:48:09;;;;;;;8.37;5.10;;;20.00;1.00;;;;;;4989092;28;20220;-73
2022/07/06 00:50:35;;;;;;;7.20;4.80;;;19.90;1.00;;;;;;5009358;28;20430;-75
2022/07/06 00:53:04;;;;;;;8.07;4.47;;;19.90;1.00;;;;;;5024953;28;20440;-73
2022/07/06 00:55:33;;;;;;;7.47;4.73;;;19.80;1.00;;;;;;4991045;28;20986;-73
2022/07/06 00:58:01;;;;;;;6.90;4.70;;;19.80;1.00;;;;;;5020464;28;20461;-73
2022/07/06 01:00:28;;;;;;;13.93;4.37;;;19.70;1.00;;;;;;5013652;28;20433;-74
2022/07/06 01:02:54;;;;;;;7.90;4.73;;;19.70;1.00;;;;;;5002625;28;20480;-73
2022/07/06 01:05:21;;;;;;;6.57;4.90;;;19.70;1.00;;;;;;5012901;28;20481;-74
2022/07/06 01:07:49;;;;;;;9.67;4.87;;;19.70;1.00;;;;;;5007910;28;20190;-73
2022/07/06 01:10:17;;;;;;;6.03;4.43;;;19.60;1.00;;;;;;5008197;28;20486;-74
2022/07/06 01:12:44;;;;;;;11.13;4.60;;;19.50;1.00;;;;;;4989707;28;20778;-73
2022/07/06 01:15:15;;;;;;;8.70;4.80;;;19.50;1.00;;;;;;5008859;28;20424;-73
2022/07/06 01:17:42;;;;;;;8.23;5.00;;;19.40;1.00;;;;;;4989354;28;20939;-73
2022/07/06 01:20:22;;;;;;;7.80;4.93;;;19.50;1.00;;;;;;5005129;28;20440;-73
2022/07/06 01:22:49;;;;;;;6.77;5.00;;;19.40;1.00;;;;;;5006143;28;20412;-73
2022/07/06 01:25:15;;;;;;;5.83;5.17;;;19.40;1.00;;;;;;4989908;28;20515;-73
2022/07/06 01:27:42;;;;;;;10.33;6.00;;;19.40;1.00;;;;;;5017577;28;20945;-73
2022/07/06 01:30:10;;;;;;;10.40;5.90;;;19.40;1.00;;;;;;5022925;28;20224;-74
2022/07/06 01:32:37;;;;;;;6.70;5.40;;;19.30;1.00;;;;;;5005594;28;20440;-73
2022/07/06 01:35:04;;;;;;;7.10;5.40;;;19.30;1.00;;;;;;5008414;28;20763;-74
2022/07/06 01:37:30;;;;;;;11.80;5.57;;;19.30;1.00;;;;;;5006591;28;20673;-73
2022/07/06 01:40:00;;;;;;;7.73;5.10;;;19.50;1.00;;;;;;5007908;28;20802;-73
2022/07/06 01:42:26;;;;;;;7.47;5.40;;;19.30;1.00;;;;;;5005934;28;20189;-74
2022/07/06 01:44:52;;;;;;;7.57;6.17;;;19.30;1.00;;;;;;4988289;28;20502;-73
2022/07/06 01:47:17;;;;;;;10.20;5.57;;;19.20;1.00;;;;;;5008640;28;20437;-74
2022/07/06 01:49:43;;;;;;;7.77;5.90;;;19.20;1.00;;;;;;5005660;28;20229;-73
2022/07/06 01:52:08;;;;;;;8.27;5.53;;;19.10;1.00;;;;;;5007685;28;20174;-73
2022/07/06 01:54:34;;;;;;;7.43;6.30;;;17.20;1.00;;;;;;5010650;28;20673;-75
2022/07/06 01:56:59;;;;;;;9.33;6.17;;;19.10;1.00;;;;;;5008719;28;20197;-73
2022/07/06 01:59:25;;;;;;;9.80;7.40;;;19.10;1.00;;;;;;5010700;28;20182;-73
2022/07/06 02:01:50;;;;;;;11.30;6.50;;;19.00;1.00;;;;;;5012178;28;20189;-73
2022/07/06 02:04:16;;;;;;;9.07;6.00;;;18.90;1.00;;;;;;5015528;28;20257;-73
2022/07/06 02:06:41;;;;;;;8.43;6.80;;;18.90;1.00;;;;;;5010689;28;20194;-73
2022/07/06 02:09:07;;;;;;;8.70;6.53;;;18.90;1.00;;;;;;4995694;28;20773;-73
2022/07/06 02:11:33;;;;;;;13.47;6.50;;;18.90;1.00;;;;;;5026073;28;20260;-73
2022/07/06 02:13:58;;;;;;;7.07;5.87;;;18.80;1.00;;;;;;5015875;28;20627;-73
2022/07/06 02:16:24;;;;;;;7.50;6.00;;;18.80;1.00;;;;;;5010668;28;20221;-73
2022/07/06 02:18:49;;;;;;;9.80;6.50;;;18.80;1.00;;;;;;5010527;28;20221;-73
2022/07/06 02:21:15;;;;;;;10.50;6.40;;;18.80;1.00;;;;;;5010543;28;20415;-72
2022/07/06 02:23:40;;;;;;;9.73;6.70;;;18.70;1.00;;;;;;5010682;28;20240;-73
2022/07/06 02:26:06;;;;;;;10.70;7.23;;;18.70;1.00;;;;;;5011920;28;20202;-73
2022/07/06 02:28:32;;;;;;;9.37;8.43;;;18.70;1.00;;;;;;5023559;28;20194;-72
2022/07/06 02:30:57;;;;;;;11.17;8.17;;;18.70;1.00;;;;;;5014119;28;20213;-72
2022/07/06 02:33:23;;;;;;;11.50;7.43;;;18.60;1.00;;;;;;5016178;28;20178;-73
2022/07/06 02:35:48;;;;;;;10.50;7.77;;;18.60;1.00;;;;;;5015985;28;20626;-73
2022/07/06 02:38:14;;;;;;;16.63;8.07;;;18.50;1.00;;;;;;5015130;28;20178;-73
2022/07/06 02:40:40;;;;;;;9.53;7.77;;;18.50;1.00;;;;;;4992787;28;20181;-73
2022/07/06 02:43:05;;;;;;;11.50;8.07;;;18.60;1.00;;;;;;5010964;28;20201;-74
2022/07/06 02:45:32;;;;;;;9.50;7.63;;;18.40;1.00;;;;;;5011233;28;20265;-73
2022/07/06 02:47:58;;;;;;;10.70;7.47;;;18.40;1.00;;;;;;5009825;28;20210;-73
2022/07/06 02:50:25;;;;;;;17.90;8.33;;;18.40;1.00;;;;;;5010923;28;20946;-73
2022/07/06 02:52:50;;;;;;;9.33;8.00;;;18.40;1.00;;;;;;5009668;28;20206;-73
2022/07/06 02:55:16;;;;;;;8.77;7.87;;;18.30;1.00;;;;;;5011362;28;20462;-72
2022/07/06 02:57:42;;;;;;;15.23;7.93;;;18.40;1.00;;;;;;5019832;28;20578;-72
2022/07/06 03:00:09;;;;;;;8.60;7.30;;;18.30;1.00;;;;;;5026129;28;20221;-72
2022/07/06 03:02:34;;;;;;;11.30;7.50;;;18.30;1.00;;;;;;5012857;28;20173;-73
2022/07/06 03:05:00;;;;;;;9.57;8.00;;;18.30;1.00;;;;;;5010311;28;20425;-72
2022/07/06 03:07:26;;;;;;;8.13;6.97;;;18.20;1.00;;;;;;5009391;28;20177;-72
2022/07/06 03:09:51;;;;;;;9.47;7.63;;;18.20;1.00;;;;;;5008832;28;20304;-72
2022/07/06 03:12:17;;;;;;;8.77;7.30;;;19.70;1.00;;;;;;5011139;28;20302;-72
2022/07/06 03:14:42;;;;;;;11.53;8.03;;;18.20;1.00;;;;;;4994084;28;20203;-72
2022/07/06 03:17:08;;;;;;;12.57;8.00;;;18.20;1.00;;;;;;5009271;28;20233;-71
2022/07/06 03:19:34;;;;;;;12.10;8.30;;;18.20;1.00;;;;;;5008750;28;20629;-72
2022/07/06 03:21:59;;;;;;;10.63;7.90;;;18.10;1.00;;;;;;5010254;28;20413;-72
2022/07/06 03:24:25;;;;;;;8.50;7.60;;;18.00;1.00;;;;;;5010769;28;20645;-73
2022/07/06 03:26:51;;;;;;;10.37;8.50;;;18.10;1.00;;;;;;5012301;28;20205;-72
2022/07/06 03:29:16;;;;;;;11.73;7.30;;;18.10;1.00;;;;;;5025736;28;20205;-72
2022/07/06 03:31:42;;;;;;;8.80;7.77;;;18.00;1.00;;;;;;5017789;28;20563;-73
2022/07/06 03:34:07;;;;;;;8.37;7.50;;;18.00;1.00;;;;;;5010257;28;20249;-72
2022/07/06 03:36:33;;;;;;;10.70;7.87;;;18.00;1.00;;;;;;4992956;28;20731;-72
2022/07/06 03:38:58;;;;;;;9.37;7.67;;;17.90;1.00;;;;;;5009750;28;20864;-72
2022/07/06 03:41:24;;;;;;;10.80;7.57;;;17.90;1.00;;;;;;5009387;28;20182;-73
2022/07/06 03:43:49;;;;;;;12.90;7.37;;;17.90;1.00;;;;;;5011266;28;20545;-72
2022/07/06 03:46:15;;;;;;;8.10;7.30;;;18.40;1.00;;;;;;4992367;28;20230;-72
2022/07/06 03:48:40;;;;;;;8.00;7.20;;;18.00;1.00;;;;;;5010036;28;20285;-72
2022/07/06 03:51:06;;;;;;;7.60;6.17;;;18.10;1.00;;;;;;5020103;28;20606;-72
2022/07/06 03:53:32;;;;;;;8.07;6.60;;;19.00;1.00;;;;;;5010266;28;20166;-72
2022/07/06 03:58:42;;;;;;;7.80;5.80;;;18.10;1.00;;;;;;5007246;28;20185;-72
2022/07/06 04:01:07;;;;;;;7.13;5.50;;;18.10;1.00;;;;;;4991458;28;20913;-72
2022/07/06 04:03:33;;;;;;;15.00;6.60;;;18.00;1.00;;;;;;5010227;28;20698;-72
2022/07/06 04:05:58;;;;;;;10.03;6.50;;;18.10;1.00;;;;;;5013523;28;20241;-72
2022/07/06 04:08:24;;;;;;;7.97;6.20;;;18.10;1.00;;;;;;5009398;28;20194;-73
2022/07/06 04:10:49;;;;;;;7.33;5.87;;;18.20;1.00;;;;;;5017838;28;20593;-72
2022/07/06 04:13:15;;;;;;;6.60;5.57;;;18.30;1.00;;;;;;5009487;28;20170;-72
2022/07/06 04:15:40;;;;;;;9.07;5.60;;;18.30;1.00;;;;;;4991792;28;20190;-72
2022/07/06 04:18:06;;;;;;;7.27;5.17;;;18.40;1.00;;;;;;5006767;28;20178;-74
2022/07/06 04:20:32;;;;;;;10.20;5.40;;;18.80;1.00;;;;;;5024438;28;20166;-72
2022/07/06 04:22:58;;;;;;;8.13;5.37;;;18.50;1.00;;;;;;5008086;28;20174;-72
2022/07/06 04:25:23;;;;;;;7.73;5.10;;;18.50;1.00;;;;;;5008850;28;20659;-72
2022/07/06 04:27:49;;;;;;;8.87;4.93;;;18.50;1.00;;;;;;5019676;28;20455;-73
2022/07/06 04:30:15;;;;;;;5.50;4.97;;;18.60;1.00;;;;;;5014041;28;20544;-73
2022/07/06 04:32:40;;;;;;;10.00;5.27;;;18.60;1.00;;;;;;5008313;28;20178;-72
2022/07/06 04:35:06;;;;;;;7.03;4.60;;;18.70;1.00;;;;;;5007157;28;20178;-72
2022/07/06 04:37:32;;;;;;;14.77;4.87;;;18.70;1.00;;;;;;4990692;28;20261;-72
2022/07/06 04:39:58;;;;;;;7.20;5.13;;;;;;;;;;5008015;28;20742;-72
2022/07/06 04:42:24;;;;;;;10.37;4.97;;;18.70;1.00;;;;;;5009215;28;20178;-73
2022/07/06 04:44:51;;;;;;;8.90;5.20;;;18.70;1.00;;;;;;4991910;28;20605;-72
2022/07/06 04:47:17;;;;;;;7.87;5.37;;;18.70;1.00;;;;;;5008628;28;21037;-72
2022/07/06 04:49:43;;;;;;;8.30;5.43;;;18.70;1.00;;;;;;5007854;28;20457;-72
2022/07/06 04:52:08;;;;;;;6.27;5.13;;;18.70;1.00;;;;;;4989750;28;20426;-72
2022/07/06 04:54:34;;;;;;;8.77;4.67;;;18.80;1.00;;;;;;4991354;28;20171;-73
2022/07/06 04:57:00;;;;;;;7.33;4.70;;;18.80;1.00;;;;;;5010259;28;20193;-73
2022/07/06 04:59:25;;;;;;;6.33;5.27;;;18.80;1.00;;;;;;5013697;28;20182;-72
2022/07/06 05:01:51;;;;;;;7.73;5.40;;;18.80;1.00;;;;;;5001225;28;20268;-73
2022/07/06 05:04:19;;;;;;;9.37;5.30;;;18.80;1.00;;;;;;5007577;28;20181;-72
2022/07/06 05:06:46;;;;;;;7.50;5.40;;;18.70;1.00;;;;;;5007552;28;20268;-73
2022/07/06 05:09:12;;;;;;;12.80;5.27;;;18.70;1.00;;;;;;4994032;28;20935;-72
2022/07/06 05:11:38;;;;;;;6.27;5.27;;;18.80;1.00;;;;;;5010927;28;20524;-73
2022/07/06 05:14:04;;;;;;;7.80;4.80;;;18.80;1.00;;;;;;5009117;28;20492;-72
2022/07/06 05:16:30;;;;;;;8.27;5.30;;;18.80;1.00;;;;;;4991213;28;20248;-72
2022/07/06 05:18:55;;;;;;;8.00;5.20;;;18.80;1.00;;;;;;5003126;28;20445;-72
2022/07/06 05:21:21;;;;;;;8.07;4.93;;;18.80;1.00;;;;;;5005746;28;20337;-72
2022/07/06 05:23:47;;;;;;;7.80;5.13;;;18.80;1.00;;;;;;5007520;28;20265;-72
2022/07/06 05:26:13;;;;;;;7.90;4.63;;;;;;;;;;5013431;28;20263;-73
2022/07/06 05:28:38;;;;;;;8.13;4.27;;;18.70;1.00;;;;;;5019217;28;20242;-72
2022/07/06 05:31:04;;;;;;;5.37;4.00;;;18.70;1.00;;;;;;5009602;28;20516;-72
2022/07/06 05:33:29;;;;;;;6.50;4.50;;;18.70;1.00;;;;;;5007600;28;20170;-72
2022/07/06 05:35:56;;;;;;;8.43;4.60;;;;;;;;;;4989238;28;20672;-72
2022/07/06 05:38:21;;;;;;;6.93;4.00;;;18.80;1.00;;;;;;4988897;28;20178;-73
2022/07/06 05:40:47;;;;;;;9.40;4.10;;;18.80;1.00;;;;;;5007666;28;20457;-73
2022/07/06 05:43:12;;;;;;;8.50;4.10;;;18.60;1.00;;;;;;5008262;28;20182;-73
2022/07/06 05:45:38;;;;;;;5.90;3.80;;;18.50;1.00;;;;;;5006001;28;20202;-73
2022/07/06 05:50:47;;;;;;;11.37;4.10;;;19.80;1.00;;;;;;5006545;28;20220;-74
2022/07/06 05:53:13;;;;;;;6.50;4.30;;;19.00;1.00;;;;;;5006885;28;20827;-73
2022/07/06 05:55:39;;;;;;;8.50;3.83;;;19.00;1.00;;;;;;5007243;28;20646;-73
2022/07/06 05:58:04;;;;;;;5.10;3.83;;;19.00;1.00;;;;;;5007036;28;20178;-73
2022/07/06 06:00:30;;;;;;;8.53;4.23;;;19.00;1.00;;;;;;5007298;28;20174;-73
2022/07/06 06:02:57;;;;;;;5.77;4.80;;;19.00;1.00;;;;;;5004958;28;20205;-73
2022/07/06 06:05:23;;;;;;;8.50;4.28;;;18.90;1.00;;;;;;5006244;28;20427;-81
2022/07/06 06:07:50;;;;;;;10.53;4.77;;;19.00;1.00;;;;;;4998985;28;20181;-76
2022/07/06 06:10:17;;;;;;;5.37;3.90;;;19.30;1.00;;;;;;4999690;28;20199;-75
2022/07/06 06:12:44;;;;;;;8.77;4.03;;;19.50;1.00;;;;;;5013338;28;20475;-75
2022/07/06 06:15:10;;;;;;;7.00;4.67;;;19.60;1.00;;;;;;5006189;28;20425;-75
2022/07/06 06:17:37;;;;;;;9.67;4.83;;;19.60;1.00;;;;;;5005446;28;20767;-75
2022/07/06 06:20:06;;;;;;;8.97;3.90;;;19.60;1.00;;;;;;5012120;28;20510;-76
2022/07/06 06:22:43;;;;;;;7.03;4.40;;;19.40;1.00;;;;;;5017423;28;20424;-76
2022/07/06 06:25:09;;;;;;;5.83;3.90;;;19.40;1.00;;;;;;4991019;28;20507;-76
2022/07/06 06:27:34;;;;;;;9.40;4.70;;;19.40;1.00;;;;;;5011918;28;20421;-73
2022/07/06 06:29:59;;;;;;;8.87;4.60;;;19.60;1.00;;;;;;5015960;28;20212;-73
2022/07/06 06:32:25;;;;;;;8.00;4.63;;;20.40;1.00;;;;;;5006842;28;20664;-72
2022/07/06 06:34:50;;;;;;;9.30;4.40;;;19.50;1.00;;;;;;5005989;28;20198;-73
2022/07/06 06:37:16;;;;;;;5.53;4.20;;;19.50;1.00;;;;;;5000882;28;20198;-73
2022/07/06 06:39:41;;;;;;;11.03;4.67;;;19.50;1.00;;;;;;5007645;28;20724;-73
2022/07/06 06:42:07;;;;;;;8.30;4.47;;;19.60;1.00;;;;;;5008882;28;20174;-73
2022/07/06 06:44:33;;;;;;;5.93;4.10;;;19.70;1.00;;;;;;5005872;28;20212;-74
2022/07/06 06:46:58;;;;;;;6.23;4.40;;;19.70;1.00;;;;;;5010597;28;20580;-73
2022/07/06 06:49:24;;;;;;;6.57;4.83;;;19.80;1.00;;;;;;5007488;28;20206;-74
2022/07/06 06:51:49;;;;;;;10.97;5.00;;;19.80;1.00;;;;;;5010878;28;20186;-74
2022/07/06 06:54:15;;;;;;;9.00;4.50;;;19.90;1.00;;;;;;4988527;28;20521;-74
2022/07/06 06:56:41;;;;;;;5.60;3.90;;;20.00;1.00;;;;;;5014818;28;20786;-74
2022/07/06 06:59:06;;;;;;;7.23;4.63;;;20.20;1.00;;;;;;5017580;28;21017;-74
2022/07/06 07:01:32;;;;;;;7.57;4.50;;;20.00;1.00;;;;;;5015306;28;20533;-74
2022/07/06 07:03:58;;;;;;;8.60;4.70;;;20.10;1.00;;;;;;5009782;28;20587;-73
2022/07/06 07:06:23;;;;;;;9.97;4.83;;;20.10;1.00;;;;;;5010929;28;20464;-74
2022/07/06 07:08:49;;;;;;;5.93;4.50;;;20.20;1.00;;;;;;5011322;28;20202;-74
2022/07/06 07:11:15;;;;;;;10.67;5.20;;;20.30;1.00;;;;;;5011871;28;20173;-74
2022/07/06 07:13:40;;;;;;;10.73;4.50;;;20.30;1.00;;;;;;5012233;28;20189;-74
2022/07/06 07:16:06;;;;;;;8.17;4.63;;;20.40;1.00;;;;;;4994549;28;20252;-74
2022/07/06 07:18:31;;;;;;;6.93;4.63;;;20.50;1.00;;;;;;5005333;28;20183;-74
2022/07/06 07:20:57;;;;;;;8.40;4.73;;;20.50;1.00;;;;;;5016048;28;20190;-75
2022/07/06 07:23:23;;;;;;;8.17;4.37;;;20.70;1.00;;;;;;5017879;28;20193;-73
2022/07/06 07:25:48;;;;;;;8.97;4.53;;;20.80;1.00;;;;;;5017090;28;20256;-74
2022/07/06 07:28:14;;;;;;;7.53;4.53;;;20.80;1.00;;;;;;5027271;28;20641;-73
2022/07/06 07:30:40;;;;;;;6.30;4.10;;;21.00;1.00;;;;;;5015870;28;20193;-74
2022/07/06 07:33:06;;;;;;;9.63;3.83;;;21.20;1.00;;;;;;5008856;28;20190;-74
2022/07/06 07:35:31;;;;;;;9.33;3.60;;;22.00;1.00;;;;;;4990947;28;21318;-74
2022/07/06 07:37:57;;;;;;;7.83;4.37;;;21.50;1.00;;;;;;5010614;28;20183;-73
2022/07/06 07:40:22;;;;;;;12.13;4.83;;;21.60;1.00;;;;;;5009882;28;20641;-75
2022/07/06 07:42:48;;;;;;;8.00;4.67;;;21.80;1.00;;;;;;5010510;28;20173;-74
2022/07/06 07:45:13;;;;;;;10.63;4.67;;;21.90;1.00;;;;;;5009843;28;20225;-74
2022/07/06 07:47:39;;;;;;;4.97;4.47;;;21.80;1.00;;;;;;5003551;28;20177;-74
2022/07/06 07:50:06;;;;;;;7.93;4.37;;;22.60;1.00;;;;;;5013853;28;20201;-74
2022/07/06 07:52:31;;;;;;;7.77;4.33;;;22.10;1.00;;;;;;5010611;28;20682;-74
2022/07/06 07:54:57;;;;;;;7.07;4.27;;;22.40;1.00;;;;;;4993336;28;20425;-74
2022/07/06 07:57:23;;;;;;;8.93;4.50;;;22.60;1.00;;;;;;5008204;28;20308;-74
2022/07/06 07:59:48;;;;;;;8.47;4.07;;;22.80;1.00;;;;;;5007200;28;20464;-74
2022/07/06 08:02:14;;;;;;;12.20;4.50;;;23.10;1.00;;;;;;5009687;28;20229;-74
2022/07/06 08:04:40;;;;;;;7.90;4.20;;;23.30;1.00;;;;;;5007711;28;20261;-73
2022/07/06 08:07:06;;;;;;;6.03;4.20;;;24.50;1.00;;;;;;5005565;28;20229;-74
2022/07/06 08:09:32;;;;;;;5.80;4.13;;;23.50;1.00;;;;;;4991332;28;20544;-75
2022/07/06 08:11:58;;;;;;;7.03;4.60;;;23.60;1.00;;;;;;5008943;28;20490;-75
2022/07/06 08:14:24;;;;;;;9.40;4.30;;;23.70;1.00;;;;;;5010606;28;20428;-74
2022/07/06 08:16:49;;;;;;;6.10;4.70;;;23.80;1.00;;;;;;5008265;28;20499;-74
2022/07/06 08:19:15;;;;;;;6.73;5.07;;;23.90;1.00;;;;;;4992325;28;20228;-74
2022/07/06 08:21:41;;;;;;;8.60;4.43;;;23.90;1.00;;;;;;5008669;28;20573;-74
2022/07/06 08:24:08;;;;;;;6.30;3.93;;;24.10;1.00;;;;;;5009562;28;20268;-74
2022/07/06 08:26:33;;;;;;;7.60;5.30;;;24.40;1.00;;;;;;4992125;28;21025;-73
2022/07/06 08:28:59;;;;;;;8.20;5.20;;;24.80;1.00;;;;;;5022259;28;20453;-74
2022/07/06 08:31:27;;;;;;;6.37;5.33;;;25.00;1.00;;;;;;5018314;28;20200;-74
2022/07/06 08:33:53;;;;;;;8.07;4.90;;;24.90;1.00;;;;;;5017428;28;20201;-75
2022/07/06 08:36:19;;;;;;;8.30;5.27;;;25.00;1.00;;;;;;5010801;28;20452;-74
2022/07/06 08:38:45;;;;;;;8.10;5.00;;;25.20;1.00;;;;;;5008643;28;20429;-74
2022/07/06 08:41:13;;;;;;;11.10;5.10;;;25.40;1.00;;;;;;5005674;28;20510;-75
2022/07/06 08:43:39;;;;;;;10.37;5.10;;;25.70;1.00;;;;;;5003159;28;20186;-74
2022/07/06 08:46:05;;;;;;;8.07;5.53;;;25.80;1.00;;;;;;5005707;28;20461;-74
2022/07/06 08:48:36;;;;;;;6.57;5.23;;;25.60;1.00;;;;;;5011051;28;20573;-75
2022/07/06 08:51:03;;;;;;;8.10;4.80;;;25.50;1.00;;;;;;5016032;28;20486;-74
2022/07/06 08:53:29;;;;;;;7.20;4.90;;;25.10;1.00;;;;;;5005428;28;20491;-74
2022/07/06 08:55:54;;;;;;;9.47;5.10;;;25.80;1.00;;;;;;5026070;28;20523;-74
2022/07/06 08:58:24;;;;;;;8.23;5.43;;;26.20;1.00;;;;;;5020598;28;20180;-74
2022/07/06 09:00:49;;;;;;;7.30;4.93;;;26.70;1.00;;;;;;5013693;28;20705;-75
2022/07/06 09:03:15;;;;;;;7.53;4.40;;;26.70;1.00;;;;;;5006554;28;20473;-73
2022/07/06 09:05:45;;;;;;;9.53;4.63;;;26.50;1.00;;;;;;5006738;28;20198;-74
2022/07/06 09:08:11;;;;;;;6.23;4.60;;;26.40;1.00;;;;;;5008893;28;20969;-74
2022/07/06 09:10:37;;;;;;;7.90;4.90;;;26.70;1.00;;;;;;5009164;28;20792;-74
2022/07/06 09:13:07;;;;;;;8.93;4.20;;;27.30;1.00;;;;;;5007912;28;20181;-75
2022/07/06 09:15:34;;;;;;;7.90;5.17;;;28.00;1.00;;;;;;5008434;28;20249;-74
2022/07/06 09:17:59;;;;;;;8.97;4.70;;;28.00;1.00;;;;;;5006245;28;20280;-74
2022/07/06 09:20:25;;;;;;;7.50;4.57;;;28.20;1.00;;;;;;5006249;28;20272;-74
2022/07/06 09:22:53;;;;;;;7.50;4.40;;;28.40;1.00;;;;;;5007835;28;20275;-74
2022/07/06 09:25:19;;;;;;;6.13;4.10;;;29.00;1.00;;;;;;4991042;28;20703;-74
2022/07/06 09:27:47;;;;;;;9.52;4.57;;;29.80;1.00;;;;;;5018488;28;20191;-74
2022/07/06 09:30:14;;;;;;;7.40;4.18;;;30.30;1.00;;;;;;4992905;28;20228;-74
2022/07/06 09:32:45;;;;;;;6.38;3.90;;;30.40;1.00;;;;;;5007616;28;20182;-75
2022/07/06 09:35:37;;;;;;;6.28;3.90;;;31.40;1.00;;;;;;5007603;28;20216;-74
2022/07/06 09:38:06;;;;;;;6.57;4.28;;;31.60;1.00;;;;;;4990145;28;20564;-74
2022/07/06 09:40:36;;;;;;;8.60;4.25;;;31.50;1.00;;;;;;5008956;28;20182;-74
2022/07/06 09:43:15;;;;;;;12.13;3.95;;;31.10;1.00;;;;;;5001282;28;20326;-75
2022/07/06 09:45:46;;;;;;;8.48;4.03;;;31.40;1.00;;;;;;5006944;28;20285;-75
2022/07/06 09:48:12;;;;;;;7.50;3.70;;;31.70;1.00;;;;;;5008495;28;20181;-75
2022/07/06 09:50:44;;;;;;;5.90;3.88;;;32.60;1.00;;;;;;5007575;28;20204;-75
2022/07/06 09:53:11;;;;;;;7.72;4.10;;;33.20;1.00;;;;;;4989849;28;20655;-75
2022/07/06 09:55:37;;;;;;;6.10;3.78;;;33.90;1.00;;;;;;5008466;28;20196;-76
2022/07/06 09:58:03;;;;;;;7.03;3.60;;;33.90;1.00;;;;;;5006042;28;20192;-75
2022/07/06 10:00:29;;;;;;;8.90;3.60;;;34.20;1.00;;;;;;5008152;28;20266;-75
2022/07/06 10:02:55;;;;;;;10.10;3.80;;;34.80;1.00;;;;;;4989343;28;20661;-75
2022/07/06 10:05:26;;;;;;;6.88;3.90;;;34.40;1.00;;;;;;5005821;28;20273;-75
2022/07/06 10:07:56;;;;;;;7.22;4.25;;;34.50;1.00;;;;;;5006374;28;20218;-75
2022/07/06 10:10:24;;;;;;;10.90;4.30;;;34.90;1.00;;;;;;5008151;28;20256;-76
2022/07/06 10:12:51;;;;;;;7.60;3.75;;;33.60;1.00;;;;;;4990107;28;20196;-77
2022/07/06 10:15:18;;;;;;;7.97;3.72;;;33.90;1.00;;;;;;5009397;28;20631;-75
2022/07/06 10:17:45;;;;;;;5.63;3.60;;;34.40;1.00;;;;;;5014420;28;20181;-76
2022/07/06 10:20:11;;;;;;;6.18;3.67;;;35.00;1.00;;;;;;5012641;28;20739;-75
2022/07/06 10:22:38;;;;;;;4.85;4.15;;;34.70;1.00;;;;;;5010154;28;20557;-75
2022/07/06 10:25:05;;;;;;;7.70;4.10;;;34.50;1.00;;;;;;5012693;28;20178;-76
2022/07/06 10:27:32;;;;;;;5.25;3.53;;;34.40;1.00;;;;;;5018424;28;20174;-77
2022/07/06 10:29:58;;;;;;;9.52;4.47;;;34.70;1.00;;;;;;5009918;28;20326;-75
2022/07/06 10:32:24;;;;;;;4.78;3.45;;;34.90;1.00;;;;;;5007841;28;20260;-74
2022/07/06 10:34:50;;;;;;;5.55;4.13;;;35.30;1.00;;;;;;5010235;28;20267;-75
2022/07/06 10:37:24;;;;;;;5.97;3.40;;;35.50;1.00;;;;;;5004225;28;20680;-75
2022/07/06 10:42:57;;;;;;;5.13;3.28;;;35.00;1.00;;;;;;5017354;28;20184;-75
2022/07/06 10:45:28;;;;;;;7.00;3.30;;;34.10;1.00;;;;;;5007943;28;20216;-75
2022/07/06 10:48:17;;;;;;;6.13;3.60;;;34.20;1.00;;;;;;5008921;28;20181;-75
2022/07/06 10:50:54;;;;;;;7.10;4.13;;;34.90;1.00;;;;;;5026364;28;20174;-75
2022/07/06 10:53:28;;;;;;;5.32;4.18;;;34.90;1.00;;;;;;5015985;28;20236;-76
2022/07/06 10:55:55;;;;;;;6.75;3.85;;;33.80;1.00;;;;;;5008271;28;20201;-74
2022/07/06 10:58:45;;;;;;;6.82;3.88;;;33.30;1.00;;;;;;5010090;28;20184;-75
2022/07/06 11:01:12;;;;;;;6.20;2.80;;;34.00;1.00;;;;;;5011074;28;20641;-75
2022/07/06 11:03:45;;;;;;;4.28;2.80;;;34.20;1.00;;;;;;4999749;28;20206;-74
2022/07/06 11:06:19;;;;;;;5.47;3.00;;;34.20;1.00;;;;;;5006895;28;20216;-75
2022/07/06 11:08:44;;;;;;;7.32;3.10;;;34.50;1.00;;;;;;5009487;28;20249;-75
2022/07/06 11:11:32;;;;;;;7.03;3.33;;;35.10;1.00;;;;;;5012368;28;20250;-76
2022/07/06 11:14:15;;;;;;;5.63;2.95;;;35.10;1.00;;;;;;5021810;28;20200;-74
2022/07/06 11:16:47;;;;;;;8.00;2.72;;;35.50;1.00;;;;;;4998772;28;20229;-76
2022/07/06 11:19:23;;;;;;;7.13;2.75;;;34.60;1.00;;;;;;5002545;28;20280;-74
2022/07/06 11:22:06;;;;;;;7.38;2.70;;;34.40;1.00;;;;;;4990193;28;20208;-75
2022/07/06 11:24:33;;;;;;;4.50;3.08;;;34.40;1.00;;;;;;4996162;28;20254;-75
2022/07/06 11:27:00;;;;;;;5.75;3.00;;;35.00;1.00;;;;;;5006186;28;20235;-75
2022/07/06 11:29:27;;;;;;;9.95;3.28;;;35.50;1.00;;;;;;5001737;28;20198;-75
2022/07/06 11:31:55;;;;;;;4.40;2.42;;;36.30;1.00;;;;;;5007140;28;20174;-75
2022/07/06 11:34:26;;;;;;;5.38;2.70;;;37.30;1.00;;;;;;4971959;28;1027892;-75
2022/07/06 11:36:56;;;;;;;6.18;2.72;;;37.90;1.00;;;;;;5008345;28;20198;-75
2022/07/06 11:39:22;;;;;;;6.03;2.72;;;36.80;1.00;;;;;;5011358;28;20204;-75
2022/07/06 11:41:47;;;;;;;8.15;3.63;;;36.00;1.00;;;;;;4991087;28;20166;-75
2022/07/06 11:44:13;;;;;;;5.68;3.70;;;;;;;;;;5011129;28;20209;-75
2022/07/06 11:46:39;;;;;;;4.13;2.33;;;37.10;1.00;;;;;;5008793;28;20683;-75
2022/07/06 11:49:09;;;;;;;5.93;2.67;;;38.30;1.00;;;;;;5010793;28;20626;-75
2022/07/06 11:51:37;;;;;;;6.50;2.97;;;37.30;1.00;;;;;;4997164;28;20174;-77
2022/07/06 11:54:12;;;;;;;7.43;2.60;;;36.00;1.00;;;;;;5010547;28;20158;-75
2022/07/06 11:56:38;;;;;;;8.23;2.70;;;36.10;1.00;;;;;;5010982;28;20252;-75
2022/07/06 11:59:04;;;;;;;4.13;2.35;;;37.20;1.00;;;;;;4992962;28;20505;-75
2022/07/06 12:01:31;;;;;;;5.50;2.22;;;37.60;1.00;;;;;;5008977;28;20311;-75
2022/07/06 12:04:04;;;;;;;5.80;2.42;;;37.50;1.00;;;;;;5010204;28;20224;-75
2022/07/06 12:06:30;;;;;;;5.45;2.25;;;37.60;1.00;;;;;;5007589;28;20348;-75
2022/07/06 12:08:58;;;;;;;11.30;2.47;;;38.00;1.00;;;;;;4992318;28;20190;-75
2022/07/06 12:11:28;;;;;;;6.32;2.60;;;38.10;1.00;;;;;;5001745;28;20185;-75
2022/07/06 12:13:56;;;;;;;3.40;2.10;;;37.60;1.00;;;;;;5010372;28;20186;-74
2022/07/06 12:16:28;;;;;;;4.65;2.63;;;37.10;1.00;;;;;;4992586;28;20498;-75
2022/07/06 12:18:53;;;;;;;6.63;2.22;;;38.10;1.00;;;;;;5009328;28;20253;-76
2022/07/06 12:21:23;;;;;;;3.83;2.20;;;38.80;1.00;;;;;;5009331;28;20312;-76
2022/07/06 12:23:50;;;;;;;3.10;2.10;;;39.50;1.00;;;;;;5009392;28;20277;-75
2022/07/06 12:26:19;;;;;;;20.20;3.05;;;40.20;1.00;;;;;;4992979;28;20190;-75
2022/07/06 12:28:46;;;;;;;9.15;2.20;;;37.80;1.00;;;;;;5015940;28;20193;-75
2022/07/06 12:31:31;;;;;;;4.78;2.40;;;37.80;1.00;;;;;;4992376;28;20209;-75
2022/07/06 12:33:57;;;;;;;3.67;2.17;;;37.50;1.00;;;;;;5008717;28;20260;-75
2022/07/06 12:36:23;;;;;;;9.30;2.67;;;37.30;1.00;;;;;;5008666;28;20319;-75
2022/07/06 12:38:48;;;;;;;5.65;1.90;;;37.40;1.00;;;;;;5008733;28;20180;-75
2022/07/06 12:41:32;;;;;;;4.45;2.45;;;37.60;1.00;;;;;;5008910;28;20178;-75
2022/07/06 12:44:05;;;;;;;3.15;1.90;;;38.20;1.00;;;;;;5010026;28;20269;-75
2022/07/06 12:46:34;;;;;;;8.63;2.50;;;38.10;1.00;;;;;;5006366;28;20208;-74
2022/07/06 12:49:01;;;;;;;5.22;2.30;;;39.00;1.00;;;;;;5003955;28;20263;-75
2022/07/06 12:51:27;;;;;;;7.45;2.47;;;39.00;1.00;;;;;;5009160;28;20170;-75
2022/07/06 12:54:11;;;;;;;6.97;2.60;;;38.50;1.00;;;;;;5008192;28;20620;-75
2022/07/06 12:56:36;;;;;;;6.63;2.30;;;38.30;1.00;;;;;;4989970;28;20186;-75
2022/07/06 12:59:02;;;;;;;6.13;2.60;;;38.50;1.00;;;;;;5019724;28;20197;-75
2022/07/06 13:01:27;;;;;;;3.78;2.50;;;38.20;1.00;;;;;;5008617;28;20170;-75
2022/07/06 13:03:57;;;;;;;5.35;2.30;;;38.40;1.00;;;;;;5008360;28;20232;-75
2022/07/06 13:06:34;;;;;;;3.22;2.47;;;39.10;1.00;;;;;;5007371;28;20268;-75